Time;durP1;ratioP1;P1;durP2;ratioP2;P2;SDS_P1;SDS_P2;PMS_P1;PMS_P2;Temp;Humidity;BMP_temperature;BMP_pressure;BME280_temperature;BME280_humidity;BME280_pressure;Samples;Min_cycle;Max_cycle;Signal;HPM_P1;HPM_P2
2022/05/03 00:02:15;;;;;;;;;;;12.40;97.80;;;;;;5045680;28;19916;-65
2022/05/03 00:05:01;;;;;;;;;;;12.40;98.00;;;;;;5045994;28;20093;-65
2022/05/03 00:07:32;;;;;;;;;;;12.30;98.10;;;;;;5064014;28;19915;-66
2022/05/03 00:10:06;;;;;;;;;;;12.40;98.00;;;;;;5045876;28;19912;-65
2022/05/03 00:12:53;;;;;;;;;;;12.30;98.00;;;;;;5062883;28;20199;-65
2022/05/03 00:15:18;;;;;;;;;;;12.30;98.10;;;;;;5063445;28;20119;-65
2022/05/03 00:17:44;;;;;;;;;;;12.30;98.00;;;;;;5063566;28;19913;-64
2022/05/03 00:20:10;;;;;;;;;;;12.40;97.90;;;;;;5029343;28;19909;-65
2022/05/03 00:22:35;;;;;;;;;;;12.40;97.80;;;;;;5063237;28;19976;-65
2022/05/03 00:25:01;;;;;;;;;;;12.30;97.90;;;;;;5063637;28;19909;-65
2022/05/03 00:27:27;;;;;;;;;;;12.30;98.10;;;;;;5063641;28;19968;-65
2022/05/03 00:29:54;;;;;;;;;;;12.20;98.30;;;;;;5063375;28;20107;-65
2022/05/03 00:32:20;;;;;;;;;;;12.10;98.50;;;;;;5063212;28;19917;-66
2022/05/03 00:34:47;;;;;;;;;;;12.10;98.60;;;;;;5045643;28;19966;-65
2022/05/03 00:37:13;;;;;;;;;;;12.10;98.60;;;;;;5046024;28;19913;-65
2022/05/03 00:39:38;;;;;;;;;;;12.10;98.60;;;;;;5063553;28;19909;-64
2022/05/03 00:42:29;;;;;;;;;;;12.10;98.60;;;;;;5062530;28;19995;-65
2022/05/03 00:45:05;;;;;;;;;;;12.10;98.70;;;;;;5062992;28;19909;-65
2022/05/03 00:47:50;;;;;;;;;;;12.10;98.60;;;;;;5045253;28;19975;-65
2022/05/03 00:50:34;;;;;;;;;;;12.00;98.90;;;;;;5063254;28;19908;-64
2022/05/03 00:52:59;;;;;;;;;;;12.00;99.00;;;;;;5045200;28;19915;-65
2022/05/03 00:55:31;;;;;;;;;;;12.00;99.10;;;;;;5063028;28;19913;-65
2022/05/03 00:58:38;;;;;;;;;;;12.10;99.00;;;;;;5063014;28;20099;-65
2022/05/03 01:01:23;;;;;;;;;;;12.00;99.00;;;;;;4961963;29;19918;-65
2022/05/03 01:03:48;;;;;;;;;;;11.90;99.20;;;;;;5059514;28;19909;-65
2022/05/03 01:06:23;;;;;;;;;;;11.90;99.30;;;;;;5064364;28;19915;-65
2022/05/03 01:08:54;;;;;;;;;;;11.70;99.60;;;;;;5067087;28;19916;-65
2022/05/03 01:11:47;;;;;;;;;;;11.70;99.70;;;;;;5066236;28;19955;-65
2022/05/03 01:14:28;;;;;;;;;;;11.70;99.70;;;;;;5067060;28;19913;-65
2022/05/03 01:17:05;;;;;;;;;;;11.60;99.80;;;;;;5066842;28;19924;-65
2022/05/03 01:19:56;;;;;;;;;;;11.70;99.80;;;;;;5049156;28;20239;-65
2022/05/03 01:22:40;;;;;;;;;;;11.60;99.90;;;;;;5066057;28;19944;-65
2022/05/03 01:25:20;;;;;;;;;;;11.60;99.90;;;;;;5066804;28;19915;-65
2022/05/03 01:28:13;;;;;;;;;;;11.50;99.90;;;;;;5066738;28;20104;-65
2022/05/03 01:30:39;;;;;;;;;;;11.40;99.90;;;;;;5065875;28;20115;-65
2022/05/03 01:33:09;;;;;;;;;;;11.40;99.90;;;;;;5032211;28;19909;-65
2022/05/03 01:35:38;;;;;;;;;;;11.40;99.90;;;;;;5066721;28;19913;-65
2022/05/03 01:38:43;;;;;;;;;;;11.30;99.90;;;;;;5066404;28;19909;-65
2022/05/03 01:41:20;;;;;;;;;;;11.30;99.90;;;;;;5017498;28;19951;-65
2022/05/03 01:44:09;;;;;;;;;;;11.20;99.90;;;;;;5046336;28;20184;-65
2022/05/03 01:46:36;;;;;;;;;;;11.20;99.90;;;;;;5028699;28;19916;-64
2022/05/03 01:52:27;;;;;;;;;;;11.20;99.90;;;;;;5045628;28;19955;-65
2022/05/03 01:55:19;;;;;;;;;;;11.10;99.90;;;;;;5046316;28;19960;-65
2022/05/03 01:58:21;;;;;;;;;;;11.10;99.90;;;;;;5008966;28;19976;-65
2022/05/03 02:03:40;;;;;;;;;;;11.00;99.90;;;;;;5102320;22;19935;-67
2022/05/03 02:06:09;;;;;;;;;;;10.90;99.90;;;;;;5071509;28;20144;-66
2022/05/03 02:09:04;;;;;;;;;;;10.70;99.90;;;;;;5084710;28;19979;-67
2022/05/03 02:11:51;;;;;;;;;;;10.70;99.90;;;;;;5083893;28;19915;-67
2022/05/03 02:14:50;;;;;;;;;;;10.70;99.90;;;;;;5067857;28;19912;-67
2022/05/03 02:17:46;;;;;;;;;;;10.70;99.90;;;;;;5058964;28;19915;-68
2022/05/03 02:20:31;;;;;;;;;;;10.60;99.90;;;;;;5068503;28;19908;-67
2022/05/03 02:23:03;;;;;;;;;;;10.60;99.90;;;;;;5083242;28;19909;-66
2022/05/03 02:25:35;;;;;;;;;;;10.70;99.90;;;;;;5084531;28;20059;-66
2022/05/03 02:28:11;;;;;;;;;;;10.70;99.90;;;;;;5084492;28;19912;-68
2022/05/03 02:30:36;;;;;;;;;;;10.70;99.90;;;;;;5083776;28;20110;-67
2022/05/03 02:33:13;;;;;;;;;;;10.70;99.90;;;;;;5066298;28;19913;-67
2022/05/03 02:35:40;;;;;;;;;;;10.70;99.90;;;;;;5084224;28;19920;-68
2022/05/03 02:38:06;;;;;;;;;;;10.60;99.90;;;;;;5062796;28;19909;-67
2022/05/03 02:40:32;;;;;;;;;;;10.60;99.90;;;;;;5083574;28;19908;-67
2022/05/03 02:42:58;;;;;;;;;;;10.60;99.90;;;;;;5083844;28;19916;-68
2022/05/03 02:45:24;;;;;;;;;;;10.50;99.90;;;;;;5084205;28;19908;-67
2022/05/03 02:48:14;;;;;;;;;;;10.50;99.90;;;;;;5083839;28;19912;-68
2022/05/03 02:50:53;;;;;;;;;;;10.40;99.90;;;;;;5083468;28;19979;-67
2022/05/03 02:53:37;;;;;;;;;;;10.40;99.90;;;;;;5067385;28;19908;-67
2022/05/03 02:56:27;;;;;;;;;;;10.40;99.90;;;;;;5084072;28;19919;-67
2022/05/03 02:59:17;;;;;;;;;;;10.50;99.90;;;;;;5082483;28;19923;-67
2022/05/03 03:02:04;;;;;;;;;;;10.50;99.90;;;;;;5082605;28;19916;-67
2022/05/03 03:04:38;;;;;;;;;;;10.50;99.90;;;;;;5060068;28;19917;-67
2022/05/03 03:07:04;;;;;;;;;;;10.50;99.90;;;;;;5082521;28;19961;-67
2022/05/03 03:10:12;;;;;;;;;;;10.50;99.90;;;;;;5083609;28;19908;-67
2022/05/03 03:12:46;;;;;;;;;;;10.40;99.90;;;;;;5050355;28;19908;-67
2022/05/03 03:15:12;;;;;;;;;;;10.40;99.90;;;;;;5082366;28;19970;-67
2022/05/03 03:17:42;;;;;;;;;;;10.40;99.90;;;;;;5065585;28;20207;-67
2022/05/03 03:20:09;;;;;;;;;;;10.40;99.90;;;;;;5083600;28;20162;-67
2022/05/03 03:22:45;;;;;;;;;;;10.40;99.90;;;;;;5082575;28;19935;-67
2022/05/03 03:25:16;;;;;;;;;;;10.30;99.90;;;;;;5083366;28;20160;-67
2022/05/03 03:27:43;;;;;;;;;;;10.30;99.90;;;;;;5083134;28;20219;-67
2022/05/03 03:30:10;;;;;;;;;;;10.30;99.90;;;;;;5082883;28;19909;-67
2022/05/03 03:32:37;;;;;;;;;;;10.30;99.90;;;;;;5082106;28;20006;-67
2022/05/03 03:35:03;;;;;;;;;;;10.30;99.90;;;;;;5065413;28;19920;-67
2022/05/03 03:37:31;;;;;;;;;;;10.30;99.90;;;;;;5083123;28;19909;-67
2022/05/03 03:39:57;;;;;;;;;;;10.20;99.90;;;;;;5082985;28;19908;-67
2022/05/03 03:42:23;;;;;;;;;;;10.30;99.90;;;;;;5082210;28;20234;-68
2022/05/03 03:44:49;;;;;;;;;;;10.20;99.90;;;;;;5064979;28;19916;-67
2022/05/03 03:47:15;;;;;;;;;;;10.20;99.90;;;;;;5048199;28;19908;-67
2022/05/03 03:49:41;;;;;;;;;;;10.20;99.90;;;;;;5082863;28;20207;-68
2022/05/03 03:52:07;;;;;;;;;;;10.20;99.90;;;;;;5064328;28;19948;-67
2022/05/03 03:54:34;;;;;;;;;;;10.10;99.90;;;;;;5082657;28;19912;-68
2022/05/03 03:57:00;;;;;;;;;;;10.00;99.90;;;;;;5082945;28;19975;-68
2022/05/03 03:59:30;;;;;;;;;;;10.10;99.90;;;;;;5064913;28;20107;-68
2022/05/03 04:01:59;;;;;;;;;;;10.00;99.90;;;;;;5081467;28;19912;-68
2022/05/03 04:04:45;;;;;;;;;;;10.00;99.90;;;;;;5082577;28;19946;-67
2022/05/03 04:07:11;;;;;;;;;;;9.90;99.90;;;;;;5082007;28;19908;-68
2022/05/03 04:09:37;;;;;;;;;;;9.90;99.90;;;;;;5081707;28;20119;-68
2022/05/03 04:12:03;;;;;;;;;;;9.80;99.90;;;;;;5081575;28;20256;-68
2022/05/03 04:14:29;;;;;;;;;;;9.80;99.90;;;;;;5082329;28;20212;-68
2022/05/03 04:16:55;;;;;;;;;;;9.80;99.90;;;;;;5081990;28;19972;-68
2022/05/03 04:19:21;;;;;;;;;;;9.80;99.90;;;;;;5080623;28;20111;-70
2022/05/03 04:21:47;;;;;;;;;;;9.80;99.90;;;;;;5081377;28;19908;-66
2022/05/03 04:24:13;;;;;;;;;;;9.70;99.90;;;;;;5081005;28;20207;-66
2022/05/03 04:26:39;;;;;;;;;;;9.70;99.90;;;;;;5077662;28;19912;-67
2022/05/03 04:29:05;;;;;;;;;;;9.80;99.90;;;;;;5081907;28;19908;-66
2022/05/03 04:31:32;;;;;;;;;;;9.80;99.90;;;;;;5073673;28;19919;-65
2022/05/03 04:33:58;;;;;;;;;;;9.90;99.90;;;;;;5077476;28;20115;-66
2022/05/03 04:36:25;;;;;;;;;;;10.00;99.90;;;;;;5080755;28;19908;-62
2022/05/03 04:38:51;;;;;;;;;;;10.10;99.90;;;;;;5082875;28;19966;-66
2022/05/03 04:41:16;;;;;;;;;;;10.20;99.90;;;;;;5080682;28;19916;-66
2022/05/03 04:43:43;;;;;;;;;;;10.20;99.90;;;;;;5083016;28;19948;-66
2022/05/03 04:46:08;;;;;;;;;;;10.20;99.90;;;;;;5082999;28;19908;-70
2022/05/03 04:48:35;;;;;;;;;;;10.20;99.90;;;;;;5083110;28;19912;-70
2022/05/03 04:51:00;;;;;;;;;;;10.20;99.90;;;;;;5080745;28;19909;-71
2022/05/03 04:53:26;;;;;;;;;;;10.20;99.90;;;;;;5082867;28;19909;-70
2022/05/03 04:55:52;;;;;;;;;;;10.20;99.90;;;;;;5082762;28;19962;-70
2022/05/03 04:58:17;;;;;;;;;;;10.20;99.90;;;;;;5075608;28;19912;-70
2022/05/03 05:00:43;;;;;;;;;;;10.20;99.90;;;;;;5081952;28;19908;-70
2022/05/03 05:03:09;;;;;;;;;;;10.20;99.90;;;;;;5082597;28;19920;-70
2022/05/03 05:05:35;;;;;;;;;;;10.20;99.90;;;;;;5082772;28;19909;-69
2022/05/03 05:08:04;;;;;;;;;;;10.30;99.90;;;;;;5076577;28;19943;-70
2022/05/03 05:10:31;;;;;;;;;;;10.30;99.90;;;;;;5081528;28;19947;-68
2022/05/03 05:12:58;;;;;;;;;;;10.50;99.90;;;;;;5062503;28;20361;-67
2022/05/03 05:15:24;;;;;;;;;;;10.60;99.90;;;;;;5077944;28;19962;-68
2022/05/03 05:17:50;;;;;;;;;;;10.70;99.90;;;;;;5078346;28;19912;-67
2022/05/03 05:20:17;;;;;;;;;;;10.70;99.90;;;;;;5082327;28;19947;-67
2022/05/03 05:22:43;;;;;;;;;;;10.70;99.90;;;;;;5076872;28;19928;-67
2022/05/03 05:25:09;;;;;;;;;;;10.70;99.90;;;;;;5063438;28;19913;-67
2022/05/03 05:27:35;;;;;;;;;;;10.70;99.90;;;;;;5082150;28;19908;-69
2022/05/03 05:30:02;;;;;;;;;;;10.80;99.90;;;;;;5079802;28;19917;-69
2022/05/03 05:32:28;;;;;;;;;;;10.80;99.90;;;;;;5073561;28;19912;-68
2022/05/03 05:34:53;;;;;;;;;;;10.80;99.90;;;;;;5081751;28;19919;-69
2022/05/03 05:37:19;;;;;;;;;;;10.90;99.90;;;;;;5082130;28;20214;-69
2022/05/03 05:39:45;;;;;;;;;;;10.90;99.90;;;;;;5082384;28;19915;-66
2022/05/03 05:42:11;;;;;;;;;;;11.00;99.90;;;;;;5071449;28;20203;-69
2022/05/03 05:44:38;;;;;;;;;;;11.00;99.90;;;;;;5070802;28;20226;-68
2022/05/03 05:47:05;;;;;;;;;;;11.10;99.90;;;;;;5062149;28;19975;-70
2022/05/03 05:49:31;;;;;;;;;;;11.10;99.90;;;;;;5062034;28;19917;-70
2022/05/03 05:53:31;;;;;;;;;;;11.20;99.90;;;;;;5044411;28;19915;-70
2022/05/03 05:54:43;;;;;;;;;;;11.20;99.90;;;;;;5067208;28;20332;-69
2022/05/03 05:57:08;;;;;;;;;;;11.20;99.90;;;;;;5065871;28;20107;-69
2022/05/03 05:59:34;;;;;;;;;;;11.20;99.90;;;;;;5066770;28;19909;-71
2022/05/03 06:02:00;;;;;;;;;;;11.30;99.90;;;;;;5030758;28;19920;-70
2022/05/03 06:04:28;;;;;;;;;;;11.30;99.90;;;;;;5065535;28;19917;-71
2022/05/03 06:06:55;;;;;;;;;;;11.40;99.90;;;;;;5065739;28;19909;-72
2022/05/03 06:09:21;;;;;;;;;;;11.40;99.90;;;;;;5048143;28;20178;-72
2022/05/03 06:11:46;;;;;;;;;;;11.40;99.90;;;;;;5046821;28;19915;-72
2022/05/03 06:14:12;;;;;;;;;;;11.50;99.90;;;;;;5047871;28;19920;-73
2022/05/03 06:16:48;;;;;;;;;;;11.50;99.90;;;;;;5047683;28;19908;-68
2022/05/03 06:19:14;;;;;;;;;;;11.60;99.90;;;;;;5065487;28;19908;-68
2022/05/03 06:21:40;;;;;;;;;;;11.70;99.90;;;;;;5064669;28;19936;-68
2022/05/03 06:24:06;;;;;;;;;;;11.70;99.90;;;;;;5065194;28;19915;-68
2022/05/03 06:26:32;;;;;;;;;;;11.80;99.90;;;;;;5065006;28;19912;-68
2022/05/03 06:28:58;;;;;;;;;;;11.90;99.90;;;;;;5064901;28;19909;-68
2022/05/03 06:31:24;;;;;;;;;;;11.90;99.90;;;;;;5064426;28;19909;-67
2022/05/03 06:33:50;;;;;;;;;;;12.10;99.90;;;;;;5064849;28;19968;-70
2022/05/03 06:36:17;;;;;;;;;;;12.20;99.70;;;;;;5065117;28;19908;-71
2022/05/03 06:38:43;;;;;;;;;;;12.20;99.40;;;;;;5065002;28;19915;-71
2022/05/03 06:41:09;;;;;;;;;;;12.30;99.50;;;;;;5065630;28;20244;-70
2022/05/03 06:43:35;;;;;;;;;;;12.50;99.30;;;;;;5084473;28;19954;-66
2022/05/03 06:46:01;;;;;;;;;;;12.60;99.10;;;;;;5084911;28;19908;-69
2022/05/03 06:48:26;;;;;;;;;;;12.60;99.00;;;;;;5067076;28;20010;-69
2022/05/03 06:50:52;;;;;;;;;;;12.70;98.90;;;;;;5083919;28;20221;-68
2022/05/03 06:53:18;;;;;;;;;;;12.80;98.60;;;;;;5084886;28;19908;-68
2022/05/03 06:55:43;;;;;;;;;;;12.80;98.40;;;;;;5084404;28;20288;-66
2022/05/03 06:58:09;;;;;;;;;;;12.90;98.30;;;;;;5084319;28;19909;-66
2022/05/03 07:00:35;;;;;;;;;;;13.00;97.70;;;;;;5083970;28;19908;-66
2022/05/03 07:03:00;;;;;;;;;;;13.00;97.60;;;;;;5084041;28;19913;-71
2022/05/03 07:05:26;;;;;;;;;;;13.20;97.50;;;;;;5084103;28;19909;-66
2022/05/03 07:07:52;;;;;;;;;;;13.30;97.40;;;;;;5084350;28;19908;-66
2022/05/03 07:10:18;;;;;;;;;;;13.40;97.30;;;;;;5084727;28;19909;-66
2022/05/03 07:12:45;;;;;;;;;;;13.50;96.60;;;;;;5083349;28;19916;-66
2022/05/03 07:15:11;;;;;;;;;;;13.60;96.30;;;;;;5066350;28;19912;-66
2022/05/03 07:23:06;;;;;;;;;;;14.20;95.40;;;;;;5084300;28;19939;-67
2022/05/03 07:25:32;;;;;;;;;;;14.30;94.30;;;;;;5066730;28;20199;-67
2022/05/03 07:27:58;;;;;;;;;;;14.40;94.20;;;;;;5083857;28;19913;-66
2022/05/03 07:30:24;;;;;;;;;;;14.60;94.10;;;;;;5084242;28;20107;-67
2022/05/03 07:32:49;;;;;;;;;;;14.80;93.90;;;;;;5083252;28;20221;-67
2022/05/03 07:35:15;;;;;;;;;;;15.00;93.30;;;;;;5083876;28;19987;-66
2022/05/03 07:37:41;;;;;;;;;;;15.10;92.80;;;;;;5084251;28;19943;-67
2022/05/03 07:40:08;;;;;;;;;;;15.20;92.30;;;;;;5083927;28;19908;-66
2022/05/03 07:42:34;;;;;;;;;;;15.30;92.10;;;;;;5082813;28;19931;-66
2022/05/03 07:44:59;;;;;;;;;;;15.40;92.00;;;;;;5083716;28;19913;-66
2022/05/03 07:47:25;;;;;;;;;;;15.50;91.90;;;;;;5083767;28;20161;-67
2022/05/03 07:49:51;;;;;;;;;;;15.60;91.10;;;;;;5083773;28;19908;-67
2022/05/03 07:52:17;;;;;;;;;;;15.60;90.60;;;;;;5082973;28;19939;-67
2022/05/03 07:54:43;;;;;;;;;;;15.60;90.30;;;;;;5083544;28;20427;-68
2022/05/03 07:57:09;;;;;;;;;;;15.60;90.70;;;;;;5083176;28;19908;-67
2022/05/03 07:59:34;;;;;;;;;;;15.60;90.00;;;;;;5083666;28;19908;-66
2022/05/03 08:02:01;;;;;;;;;;;15.70;90.10;;;;;;5082648;28;19912;-67
2022/05/03 08:04:27;;;;;;;;;;;15.70;90.70;;;;;;5083466;28;19909;-67
2022/05/03 08:06:52;;;;;;;;;;;15.90;90.20;;;;;;5083380;28;20096;-64
2022/05/03 08:09:18;;;;;;;;;;;16.00;90.10;;;;;;5083065;28;19909;-64
2022/05/03 08:11:44;;;;;;;;;;;16.10;90.00;;;;;;5082225;28;19916;-67
2022/05/03 08:14:10;;;;;;;;;;;16.20;89.60;;;;;;5083027;28;20226;-67
2022/05/03 08:16:35;;;;;;;;;;;16.30;89.20;;;;;;5083376;28;19908;-67
2022/05/03 08:19:01;;;;;;;;;;;16.20;87.70;;;;;;5083382;28;19912;-67
2022/05/03 08:21:27;;;;;;;;;;;16.20;86.90;;;;;;5081016;28;19908;-66
2022/05/03 08:23:54;;;;;;;;;;;16.30;86.70;;;;;;5063048;28;19920;-67
2022/05/03 08:26:20;;;;;;;;;;;16.50;86.50;;;;;;5069682;28;20151;-67
2022/05/03 08:28:46;;;;;;;;;;;16.50;87.20;;;;;;5083051;28;19947;-65
2022/05/03 08:31:12;;;;;;;;;;;16.70;87.30;;;;;;5082263;28;20238;-64
2022/05/03 08:33:37;;;;;;;;;;;16.80;87.00;;;;;;5082984;28;20108;-64
2022/05/03 08:36:04;;;;;;;;;;;16.80;85.90;;;;;;5082837;28;20180;-64
2022/05/03 08:43:59;;;;;;;;;;;17.20;83.10;;;;;;5082696;28;19929;-64
2022/05/03 08:46:24;;;;;;;;;;;17.20;83.70;;;;;;5082720;28;19944;-65
2022/05/03 08:48:53;;;;;;;;;;;17.40;82.40;;;;;;5083038;28;20017;-65
2022/05/03 08:51:20;;;;;;;;;;;17.40;82.60;;;;;;5081908;28;19909;-64
2022/05/03 08:53:46;;;;;;;;;;;17.60;82.10;;;;;;5082877;28;19915;-65
2022/05/03 08:56:11;;;;;;;;;;;17.60;82.40;;;;;;5082561;28;19913;-64
2022/05/03 08:58:39;;;;;;;;;;;17.70;81.10;;;;;;5064328;28;20174;-65
2022/05/03 09:01:04;;;;;;;;;;;17.70;81.70;;;;;;5081840;28;20196;-65
2022/05/03 09:03:30;;;;;;;;;;;17.90;81.50;;;;;;5082769;28;19908;-66
2022/05/03 09:05:56;;;;;;;;;;;18.00;79.70;;;;;;5082506;28;19908;-65
2022/05/03 09:08:23;;;;;;;;;;;18.10;78.00;;;;;;5082704;28;19908;-65
2022/05/03 09:10:49;;;;;;;;;;;18.20;79.50;;;;;;5081742;28;20223;-65
2022/05/03 09:13:22;;;;;;;;;;;18.40;79.10;;;;;;5082159;28;19976;-65
2022/05/03 09:15:50;;;;;;;;;;;18.50;79.50;;;;;;5082515;28;19963;-65
2022/05/03 09:18:38;;;;;;;;;;;18.70;77.80;;;;;;5082669;28;19909;-65
2022/05/03 09:24:05;;;;;;;;;;;19.00;76.00;;;;;;5082431;28;19915;-66
2022/05/03 09:26:30;;;;;;;;;;;19.00;75.70;;;;;;5082610;28;20274;-66
2022/05/03 09:29:10;;;;;;;;;;;19.00;75.10;;;;;;5065502;28;19913;-65
2022/05/03 09:31:41;;;;;;;;;;;19.10;75.50;;;;;;5085756;28;19909;-65
2022/05/03 09:34:17;;;;;;;;;;;19.20;76.00;;;;;;5086153;28;20256;-65
2022/05/03 09:36:49;;;;;;;;;;;19.40;76.00;;;;;;5086467;28;20241;-66
2022/05/03 09:39:21;;;;;;;;;;;19.40;73.00;;;;;;5086419;28;19915;-65
2022/05/03 09:42:06;;;;;;;;;;;19.30;74.00;;;;;;5085486;28;19908;-66
2022/05/03 09:44:36;;;;;;;;;;;19.50;75.30;;;;;;5086471;28;19916;-65
2022/05/03 09:47:06;;;;;;;;;;;19.60;75.80;;;;;;5086289;28;20011;-65
2022/05/03 09:49:39;;;;;;;;;;;19.70;75.40;;;;;;5081280;28;19919;-65
2022/05/03 09:52:05;;;;;;;;;;;19.70;74.50;;;;;;5085387;28;19908;-65
2022/05/03 09:54:49;;;;;;;;;;;19.70;73.10;;;;;;5076447;28;19984;-65
2022/05/03 09:57:23;;;;;;;;;;;19.80;74.90;;;;;;5065745;28;19908;-65
2022/05/03 09:59:50;;;;;;;;;;;19.90;72.60;;;;;;5065688;28;19955;-65
2022/05/03 10:02:17;;;;;;;;;;;20.00;72.60;;;;;;5047107;28;19912;-68
2022/05/03 10:04:47;;;;;;;;;;;20.10;70.80;;;;;;5065929;28;20108;-66
2022/05/03 10:07:13;;;;;;;;;;;20.30;72.10;;;;;;5065708;28;19909;-65
2022/05/03 10:09:39;;;;;;;;;;;20.30;70.90;;;;;;5065749;28;19908;-64
2022/05/03 10:12:06;;;;;;;;;;;20.40;70.10;;;;;;5055855;28;19909;-65
2022/05/03 10:14:31;;;;;;;;;;;20.40;68.60;;;;;;5067798;28;19992;-65
2022/05/03 10:22:26;;;;;;;;;;;20.70;68.00;;;;;;5069305;28;19922;-66
2022/05/03 10:24:55;;;;;;;;;;;20.80;68.00;;;;;;5067519;28;19908;-66
2022/05/03 10:27:25;;;;;;;;;;;20.90;69.30;;;;;;5085150;28;19940;-66
2022/05/03 10:30:20;;;;;;;;;;;21.00;66.70;;;;;;5067687;28;19947;-66
2022/05/03 10:33:20;;;;;;;;;;;21.10;68.70;;;;;;5083800;28;20107;-66
2022/05/03 10:35:47;;;;;;;;;;;21.40;66.00;;;;;;5084241;28;19920;-66
2022/05/03 10:38:12;;;;;;;;;;;21.40;66.00;;;;;;5083033;28;19982;-66
2022/05/03 10:40:43;;;;;;;;;;;21.50;65.20;;;;;;5083235;28;20222;-66
2022/05/03 10:43:10;;;;;;;;;;;21.50;66.20;;;;;;5065002;28;19930;-66
2022/05/03 10:45:53;;;;;;;;;;;22.00;64.30;;;;;;5084126;28;19913;-66
2022/05/03 10:48:29;;;;;;;;;;;21.90;63.70;;;;;;5083781;28;20170;-66
2022/05/03 10:51:00;;;;;;;;;;;21.70;63.10;;;;;;5082905;28;19995;-66
2022/05/03 10:53:27;;;;;;;;;;;21.70;65.80;;;;;;5081597;28;20196;-65
2022/05/03 10:56:03;;;;;;;;;;;21.80;64.40;;;;;;5083686;28;19989;-66
2022/05/03 10:58:36;;;;;;;;;;;22.10;63.80;;;;;;5083633;28;19974;-66
2022/05/03 11:01:14;;;;;;;;;;;22.00;64.10;;;;;;5064847;28;19908;-66
2022/05/03 11:03:52;;;;;;;;;;;22.30;65.40;;;;;;5083197;28;19996;-65
2022/05/03 11:06:26;;;;;;;;;;;22.10;64.40;;;;;;5083659;28;19908;-66
2022/05/03 11:09:18;;;;;;;;;;;22.10;63.60;;;;;;5083537;28;20026;-66
2022/05/03 11:11:43;;;;;;;;;;;22.10;63.60;;;;;;5082007;28;19908;-65
2022/05/03 11:17:05;;;;;;;;;;;22.20;66.70;;;;;;5063616;28;19956;-65
2022/05/03 11:19:32;;;;;;;;;;;22.30;64.00;;;;;;5063163;28;20215;-65
2022/05/03 11:21:58;;;;;;;;;;;22.30;64.00;;;;;;5062485;28;19915;-65
2022/05/03 11:24:26;;;;;;;;;;;22.30;66.00;;;;;;5063288;28;20335;-65
2022/05/03 11:26:53;;;;;;;;;;;22.30;62.10;;;;;;5063050;28;19916;-66
2022/05/03 11:29:19;;;;;;;;;;;22.60;65.90;;;;;;5062867;28;20023;-65
2022/05/03 11:31:50;;;;;;;;;;;22.70;60.00;;;;;;5062364;28;19909;-65
2022/05/03 11:34:17;;;;;;;;;;;22.80;62.20;;;;;;5062600;28;19955;-65
2022/05/03 11:36:43;;;;;;;;;;;23.00;61.90;;;;;;5063159;28;19916;-65
2022/05/03 11:39:09;;;;;;;;;;;23.20;60.00;;;;;;5062634;28;20298;-67
2022/05/03 11:41:36;;;;;;;;;;;23.30;58.30;;;;;;5062355;28;20122;-66
2022/05/03 11:44:02;;;;;;;;;;;23.50;59.50;;;;;;5079395;28;19932;-67
2022/05/03 11:46:28;;;;;;;;;;;23.70;57.60;;;;;;5083061;28;19919;-67
2022/05/03 11:48:59;;;;;;;;;;;23.90;56.70;;;;;;5082940;28;19973;-65
2022/05/03 11:57:09;;;;;;;;;;;24.40;52.10;;;;;;5082798;28;20106;-66
2022/05/03 11:59:35;;;;;;;;;;;24.30;53.40;;;;;;5082601;28;19982;-66
2022/05/03 12:02:20;;;;;;;;;;;24.10;53.10;;;;;;5081592;28;19912;-66
2022/05/03 12:05:17;;;;;;;;;;;24.20;53.70;;;;;;5082526;28;19958;-66
2022/05/03 12:07:47;;;;;;;;;;;24.60;51.00;;;;;;5082591;28;19908;-66
2022/05/03 12:10:34;;;;;;;;;;;25.10;45.90;;;;;;5082360;28;19909;-68
2022/05/03 12:13:25;;;;;;;;;;;25.10;46.10;;;;;;5081788;28;20022;-66
2022/05/03 12:15:57;;;;;;;;;;;25.80;48.50;;;;;;5081794;28;19913;-66
2022/05/03 12:18:26;;;;;;;;;;;26.20;45.40;;;;;;5082261;28;19908;-65
2022/05/03 12:20:57;;;;;;;;;;;26.70;44.00;;;;;;5063798;28;19987;-66
2022/05/03 12:23:24;;;;;;;;;;;27.10;42.60;;;;;;5082082;28;19908;-65
2022/05/03 12:25:54;;;;;;;;;;;27.40;42.10;;;;;;5082339;28;19908;-66
2022/05/03 12:28:21;;;;;;;;;;;28.90;41.50;;;;;;5081567;28;19909;-66
2022/05/03 12:30:57;;;;;;;;;;;30.60;40.30;;;;;;5063570;28;19970;-66
2022/05/03 12:33:25;;;;;;;;;;;31.50;37.70;;;;;;5081935;28;19908;-66
2022/05/03 12:35:51;;;;;;;;;;;32.60;35.80;;;;;;5081688;28;19913;-66
2022/05/03 12:38:18;;;;;;;;;;;33.90;34.80;;;;;;5082064;28;20107;-67
2022/05/03 12:40:48;;;;;;;;;;;34.40;32.90;;;;;;5062936;28;19914;-67
2022/05/03 12:43:18;;;;;;;;;;;35.70;31.40;;;;;;5080851;28;19920;-65
2022/05/03 12:46:05;;;;;;;;;;;36.70;30.00;;;;;;5081738;28;20006;-65
2022/05/03 12:48:33;;;;;;;;;;;35.60;30.90;;;;;;5081922;28;19950;-65
2022/05/03 12:50:59;;;;;;;;;;;35.50;29.30;;;;;;5081093;28;19965;-66
2022/05/03 12:53:29;;;;;;;;;;;33.50;30.70;;;;;;5080862;28;20211;-66
2022/05/03 12:55:56;;;;;;;;;;;32.70;31.70;;;;;;5081704;28;20100;-65
2022/05/03 12:58:21;;;;;;;;;;;31.90;31.90;;;;;;5081550;28;19908;-66
2022/05/03 13:00:49;;;;;;;;;;;30.10;33.80;;;;;;5080916;28;20227;-65
2022/05/03 13:03:15;;;;;;;;;;;29.80;35.80;;;;;;5080985;28;19913;-65
2022/05/03 13:05:41;;;;;;;;;;;29.20;35.70;;;;;;5081707;28;19978;-66
2022/05/03 13:08:07;;;;;;;;;;;29.00;35.30;;;;;;5081755;28;19958;-66
2022/05/03 13:10:33;;;;;;;;;;;29.80;36.30;;;;;;5081254;28;20202;-65
2022/05/03 13:13:03;;;;;;;;;;;30.20;34.50;;;;;;5081084;28;19909;-66
2022/05/03 13:15:28;;;;;;;;;;;29.90;34.70;;;;;;5081813;28;19912;-66
2022/05/03 13:17:54;;;;;;;;;;;28.90;35.60;;;;;;5081519;28;19961;-66
2022/05/03 13:20:20;;;;;;;;;;;27.90;36.10;;;;;;5081271;28;19931;-66
2022/05/03 13:22:46;;;;;;;;;;;27.70;36.20;;;;;;5081316;28;19913;-65
2022/05/03 13:25:12;;;;;;;;;;;27.00;37.10;;;;;;5081732;28;19947;-66
2022/05/03 13:27:37;;;;;;;;;;;26.00;38.50;;;;;;5081223;28;19909;-65
2022/05/03 13:30:04;;;;;;;;;;;26.10;39.50;;;;;;5081523;28;19908;-65
2022/05/03 13:32:30;;;;;;;;;;;26.30;40.70;;;;;;5080828;28;19908;-65
2022/05/03 13:34:56;;;;;;;;;;;27.20;39.90;;;;;;5063669;28;19947;-65
2022/05/03 13:43:04;;;;;;;;;;;33.60;33.70;;;;;;5067764;28;19976;-65
2022/05/03 13:45:30;;;;;;;;;;;33.60;33.30;;;;;;5081177;28;19924;-66
2022/05/03 13:47:56;;;;;;;;;;;33.00;34.00;;;;;;5081211;28;19950;-66
2022/05/03 13:50:22;;;;;;;;;;;33.30;34.70;;;;;;5081187;28;19909;-66
2022/05/03 13:52:47;;;;;;;;;;;33.80;32.20;;;;;;5080432;28;19908;-65
2022/05/03 13:55:13;;;;;;;;;;;31.90;32.70;;;;;;5081231;28;20182;-65
2022/05/03 13:57:39;;;;;;;;;;;30.20;34.20;;;;;;5081077;28;19912;-65
2022/05/03 14:00:10;;;;;;;;;;;29.60;34.50;;;;;;5081297;28;19909;-65
2022/05/03 14:02:45;;;;;;;;;;;28.60;36.10;;;;;;5076775;23;19921;-69
2022/05/03 14:05:11;;;;;;;;;;;27.90;36.40;;;;;;5062156;28;20180;-68
2022/05/03 14:07:37;;;;;;;;;;;27.60;34.90;;;;;;5062203;28;19909;-68
2022/05/03 14:10:03;;;;;;;;;;;26.80;36.50;;;;;;5062237;28;19919;-68
2022/05/03 14:12:32;;;;;;;;;;;26.60;36.80;;;;;;5060478;28;19940;-68
2022/05/03 14:14:58;;;;;;;;;;;26.30;37.90;;;;;;5065662;28;19913;-67
2022/05/03 14:17:23;;;;;;;;;;;26.10;37.60;;;;;;5065488;28;19909;-68
2022/05/03 14:19:49;;;;;;;;;;;25.80;37.30;;;;;;5065636;28;19909;-68
2022/05/03 14:22:15;;;;;;;;;;;25.60;38.00;;;;;;5064909;28;20234;-68
2022/05/03 14:24:40;;;;;;;;;;;25.40;39.50;;;;;;5065532;28;19924;-68
2022/05/03 14:27:06;;;;;;;;;;;25.20;40.30;;;;;;5065651;28;19909;-68
2022/05/03 14:29:32;;;;;;;;;;;25.50;40.00;;;;;;5065579;28;20208;-68
2022/05/03 14:31:58;;;;;;;;;;;25.10;41.20;;;;;;5064692;28;19913;-68
2022/05/03 14:34:23;;;;;;;;;;;25.20;40.30;;;;;;5065501;28;19913;-68
2022/05/03 14:36:49;;;;;;;;;;;25.50;39.10;;;;;;5065507;28;19912;-68
2022/05/03 14:39:15;;;;;;;;;;;25.50;39.40;;;;;;5065654;28;19916;-68
2022/05/03 14:41:42;;;;;;;;;;;25.40;40.10;;;;;;5063530;28;19930;-68
2022/05/03 14:44:07;;;;;;;;;;;26.30;40.20;;;;;;5064219;28;20334;-68
2022/05/03 14:46:33;;;;;;;;;;;27.80;37.50;;;;;;5065161;28;19975;-68
2022/05/03 14:49:00;;;;;;;;;;;29.20;35.10;;;;;;5065112;28;19988;-68
2022/05/03 14:51:26;;;;;;;;;;;30.00;34.40;;;;;;5064421;28;20192;-68
2022/05/03 14:53:51;;;;;;;;;;;30.30;34.20;;;;;;5063252;28;20258;-68
2022/05/03 15:04:30;;;;;;;;;;;33.90;31.30;;;;;;5066631;28;20214;-68
2022/05/03 15:06:56;;;;;;;;;;;33.80;31.70;;;;;;5067788;28;19909;-69
2022/05/03 15:09:21;;;;;;;;;;;33.90;31.20;;;;;;5067135;28;19909;-69
2022/05/03 15:11:48;;;;;;;;;;;33.10;31.50;;;;;;5064990;28;19909;-69
2022/05/03 15:14:14;;;;;;;;;;;31.80;33.10;;;;;;5063864;28;19912;-68
2022/05/03 15:16:39;;;;;;;;;;;30.40;34.60;;;;;;5064677;28;19954;-68
2022/05/03 15:19:05;;;;;;;;;;;29.40;34.90;;;;;;5064406;28;19915;-68
2022/05/03 15:21:31;;;;;;;;;;;28.30;35.00;;;;;;5063889;28;19909;-68
2022/05/03 15:27:02;;;;;;;;;;;25.80;39.20;;;;;;5022767;28;19947;-68